createdAt,value
2019-05-22T00:00:51.181Z,92.03
2019-05-22T00:03:13.939Z,92.09
2019-05-22T00:05:24.522Z,91.95
2019-05-22T00:07:32.667Z,92.14
2019-05-22T00:09:42.360Z,91.71
2019-05-22T00:11:52.496Z,92.09
2019-05-22T00:14:00.438Z,92.34
2019-05-22T00:16:11.602Z,91.79
2019-05-22T00:18:19.766Z,91.94
2019-05-22T00:20:29.686Z,92.17
2019-05-22T00:22:39.317Z,91.73
2019-05-22T00:24:50.340Z,91.98
2019-05-22T00:27:00.371Z,91.74
2019-05-22T00:29:09.193Z,91.91
2019-05-22T00:31:18.261Z,91.59
2019-05-22T00:33:26.521Z,91.52
2019-05-22T00:35:36.981Z,92.16
2019-05-22T00:37:46.191Z,91.83
2019-05-22T00:39:54.975Z,92.00
2019-05-22T00:42:03.890Z,91.88
2019-05-22T00:44:14.222Z,92.05
2019-05-22T00:46:24.023Z,92.42
2019-05-22T00:48:34.559Z,92.57
2019-05-22T00:50:53.737Z,91.93
2019-05-22T00:53:04.011Z,91.41
2019-05-22T00:55:14.269Z,91.86
2019-05-22T00:57:23.806Z,90.92
2019-05-22T00:59:36.211Z,91.10
2019-05-22T01:01:46.377Z,91.58
2019-05-22T01:03:56.808Z,91.36
2019-05-22T01:06:06.285Z,91.27
2019-05-22T01:08:18.065Z,91.44
2019-05-22T01:10:27.037Z,91.24
2019-05-22T01:12:42.917Z,91.63
2019-05-22T01:14:52.894Z,91.63
2019-05-22T01:17:03.743Z,91.53
2019-05-22T01:19:11.930Z,91.70
2019-05-22T01:21:22.261Z,91.41
2019-05-22T01:23:31.872Z,91.70
2019-05-22T01:25:40.738Z,91.16
2019-05-22T01:27:51.423Z,91.67
2019-05-22T01:30:03.530Z,91.79
2019-05-22T01:32:18.821Z,91.60
2019-05-22T01:34:28.675Z,92.06
2019-05-22T01:36:38.471Z,92.46
2019-05-22T01:38:47.850Z,92.27
2019-05-22T01:40:57.648Z,91.94
2019-05-22T01:43:09.913Z,92.25
2019-05-22T01:45:18.659Z,91.97
2019-05-22T01:47:44.082Z,92.36
2019-05-22T01:49:56.433Z,92.79
2019-05-22T01:52:06.687Z,92.89
2019-05-22T01:54:15.109Z,92.68
2019-05-22T01:56:24.871Z,92.55
2019-05-22T01:58:34.518Z,92.85
2019-05-22T02:00:44.190Z,92.70
2019-05-22T02:02:52.539Z,92.72
2019-05-22T02:05:02.025Z,92.29
2019-05-22T02:07:11.533Z,92.68
2019-05-22T02:09:37.570Z,91.85
2019-05-22T02:11:46.521Z,91.77
2019-05-22T02:14:16.073Z,91.84
2019-05-22T02:16:24.400Z,91.54
2019-05-22T02:18:34.790Z,91.55
2019-05-22T02:20:44.973Z,91.76
2019-05-22T02:22:54.699Z,91.58
2019-05-22T02:25:05.349Z,91.67
2019-05-22T02:27:13.901Z,91.60
2019-05-22T02:29:22.324Z,91.78
2019-05-22T02:31:30.541Z,91.96
2019-05-22T02:33:56.584Z,91.73
2019-05-22T02:36:05.976Z,91.60
2019-05-22T02:38:14.025Z,91.97
2019-05-22T02:40:32.355Z,92.25
2019-05-22T02:42:40.712Z,91.84
2019-05-22T02:44:48.856Z,91.53
2019-05-22T02:47:16.745Z,91.88
2019-05-22T02:49:13.539Z,91.98
2019-05-22T02:51:22.302Z,92.29
2019-05-22T02:53:33.735Z,91.82
2019-05-22T02:55:41.801Z,92.02
2019-05-22T02:57:51.977Z,91.96
2019-05-22T03:00:00.942Z,91.43
2019-05-22T03:02:09.930Z,91.42
2019-05-22T03:04:19.036Z,91.63
2019-05-22T03:06:28.023Z,91.99
2019-05-22T03:09:03.966Z,91.79
2019-05-22T03:11:13.292Z,91.84
2019-05-22T03:13:26.756Z,91.65
2019-05-22T03:15:35.309Z,91.46
2019-05-22T03:17:47.351Z,91.67
2019-05-22T03:19:55.564Z,91.68
2019-05-22T03:22:29.158Z,91.42
2019-05-22T03:24:38.049Z,91.47
2019-05-22T03:26:49.023Z,91.36
2019-05-22T03:28:57.126Z,91.39
2019-05-22T03:31:06.953Z,91.57
2019-05-22T03:33:16.586Z,91.26
2019-05-22T03:35:28.293Z,91.54
2019-05-22T03:37:37.022Z,91.44
2019-05-22T03:39:46.875Z,91.33
2019-05-22T03:41:55.400Z,91.47
2019-05-22T03:44:05.093Z,91.85
2019-05-22T03:46:37.124Z,91.63
2019-05-22T03:48:45.129Z,91.19
2019-05-22T03:50:58.215Z,91.65
2019-05-22T03:53:18.320Z,91.19
2019-05-22T03:55:27.558Z,91.58
2019-05-22T03:57:38.213Z,91.63
2019-05-22T03:59:46.678Z,91.83
2019-05-22T04:01:56.702Z,91.82
2019-05-22T04:04:07.607Z,91.62
2019-05-22T04:06:17.573Z,91.63
2019-05-22T04:08:27.835Z,91.69
2019-05-22T04:10:41.577Z,91.27
2019-05-22T04:12:50.609Z,91.53
2019-05-22T04:15:00.558Z,91.34
2019-05-22T04:17:13.696Z,91.13
2019-05-22T04:19:23.177Z,91.16
2019-05-22T04:21:31.799Z,91.01
2019-05-22T04:23:40.301Z,91.23
2019-05-22T04:25:52.732Z,91.48
2019-05-22T04:27:59.495Z,91.19
2019-05-22T04:30:12.008Z,91.05
2019-05-22T04:32:31.813Z,91.18
2019-05-22T04:34:40.660Z,91.05
2019-05-22T04:36:50.303Z,91.01
2019-05-22T04:39:00.834Z,91.14
2019-05-22T04:41:11.150Z,91.34
2019-05-22T04:43:21.681Z,91.40
2019-05-22T04:45:30.895Z,91.22
2019-05-22T04:47:40.493Z,91.23
2019-05-22T04:50:06.247Z,90.77
2019-05-22T04:52:00.371Z,90.88
2019-05-22T04:54:08.831Z,91.18
2019-05-22T04:56:17.818Z,90.64
2019-05-22T04:58:28.151Z,90.99
2019-05-22T05:00:37.645Z,91.04
2019-05-22T05:02:46.106Z,91.36
2019-05-22T05:04:54.327Z,90.94
2019-05-22T05:07:04.705Z,91.09
2019-05-22T05:09:14.552Z,91.64
2019-05-22T05:11:25.418Z,91.43
2019-05-22T05:13:34.365Z,91.27
2019-05-22T05:15:42.920Z,91.46
2019-05-22T05:17:52.069Z,90.79
2019-05-22T05:20:00.141Z,91.45
2019-05-22T05:22:08.303Z,91.42
2019-05-22T05:24:16.945Z,91.37
2019-05-22T05:26:27.033Z,90.80
2019-05-22T05:28:35.537Z,91.44
2019-05-22T05:30:45.665Z,91.61
2019-05-22T05:32:54.694Z,91.41
2019-05-22T05:35:05.743Z,91.09
2019-05-22T05:37:16.073Z,90.99
2019-05-22T05:39:42.327Z,91.03
2019-05-22T05:41:50.437Z,90.82
2019-05-22T05:43:59.768Z,91.24
2019-05-22T05:46:10.476Z,91.19
2019-05-22T05:48:22.062Z,91.21
2019-05-22T05:50:39.674Z,91.29
2019-05-22T05:52:42.142Z,91.30
2019-05-22T05:54:51.567Z,91.36
2019-05-22T05:57:37.627Z,90.98
2019-05-22T05:59:46.080Z,90.56
2019-05-22T06:01:55.688Z,90.85
2019-05-22T06:04:06.385Z,91.54
2019-05-22T06:06:30.731Z,91.10
2019-05-22T06:08:39.981Z,91.38
2019-05-22T06:11:09.195Z,90.66
2019-05-22T06:13:17.807Z,91.11
2019-05-22T06:15:47.582Z,90.57
2019-05-22T06:18:34.880Z,90.94
2019-05-22T06:21:04.503Z,90.70
2019-05-22T06:23:34.100Z,91.14
2019-05-22T06:25:42.101Z,90.90
2019-05-22T06:27:53.011Z,90.73
2019-05-22T06:30:11.369Z,91.01
2019-05-22T06:32:51.418Z,90.71
2019-05-22T06:34:59.855Z,90.92
2019-05-22T06:37:21.691Z,90.74
2019-05-22T06:39:30.513Z,91.32
2019-05-22T06:41:41.474Z,91.15
2019-05-22T06:44:29.120Z,90.97
2019-05-22T06:46:48.237Z,91.27
2019-05-22T06:48:59.718Z,91.14
2019-05-22T06:51:18.967Z,91.48
2019-05-22T06:53:38.434Z,91.46
2019-05-22T06:55:46.464Z,91.77
2019-05-22T06:57:55.602Z,91.80
2019-05-22T07:00:14.005Z,91.65
2019-05-22T07:02:19.637Z,91.46
2019-05-22T07:04:28.266Z,91.67
2019-05-22T07:06:36.379Z,91.80
2019-05-22T07:08:44.532Z,91.65
2019-05-22T07:10:52.607Z,91.77
2019-05-22T07:13:00.899Z,91.60
2019-05-22T07:15:20.775Z,91.70
2019-05-22T07:17:30.310Z,91.94
2019-05-22T07:19:39.398Z,91.46
2019-05-22T07:21:51.942Z,90.66
2019-05-22T07:24:01.213Z,91.64
2019-05-22T07:26:10.562Z,91.29
2019-05-22T07:28:20.396Z,91.20
2019-05-22T07:30:28.995Z,91.39
2019-05-22T07:32:38.160Z,91.14
2019-05-22T07:34:47.301Z,90.69
2019-05-22T07:36:56.340Z,91.09
2019-05-22T07:39:06.812Z,90.92
2019-05-22T07:41:15.232Z,91.04
2019-05-22T07:43:24.089Z,91.17
2019-05-22T07:45:32.531Z,91.28
2019-05-22T07:47:42.726Z,91.45
2019-05-22T07:49:50.762Z,91.54
2019-05-22T07:52:01.765Z,91.10
2019-05-22T07:54:08.683Z,90.83
2019-05-22T07:56:17.691Z,90.87
2019-05-22T07:58:28.932Z,90.97
2019-05-22T08:00:37.970Z,91.22
2019-05-22T08:02:49.203Z,91.22
2019-05-22T08:04:57.120Z,90.78
2019-05-22T08:07:08.439Z,91.07
2019-05-22T08:09:18.481Z,91.53
2019-05-22T08:11:27.510Z,91.16
2019-05-22T08:13:36.166Z,90.97
2019-05-22T08:15:47.644Z,91.43
2019-05-22T08:17:55.183Z,91.22
2019-05-22T08:20:08.775Z,91.27
2019-05-22T08:22:18.643Z,91.27
2019-05-22T08:24:27.118Z,90.89
2019-05-22T08:26:53.257Z,90.80
2019-05-22T08:28:46.332Z,90.65
2019-05-22T08:30:55.855Z,90.83
2019-05-22T08:33:09.842Z,90.68
2019-05-22T08:35:18.368Z,90.46
2019-05-22T08:37:33.548Z,90.27
2019-05-22T08:39:41.769Z,91.15
2019-05-22T08:41:51.214Z,91.02
2019-05-22T08:44:15.522Z,90.15
2019-05-22T08:46:09.623Z,89.80
2019-05-22T08:48:21.806Z,90.12
2019-05-22T08:50:31.318Z,90.35
2019-05-22T08:52:40.948Z,90.44
2019-05-22T08:54:48.916Z,90.04
2019-05-22T08:56:58.349Z,90.17
2019-05-22T08:59:18.947Z,90.17
2019-05-22T09:01:30.669Z,90.52
2019-05-22T09:03:39.442Z,90.52
2019-05-22T09:05:48.392Z,90.40
2019-05-22T09:07:56.521Z,89.68
2019-05-22T09:10:06.560Z,89.38
2019-05-22T09:12:14.521Z,89.97
2019-05-22T09:14:22.877Z,89.88
2019-05-22T09:16:32.705Z,89.03
2019-05-22T09:18:41.092Z,90.04
2019-05-22T09:20:50.083Z,89.34
2019-05-22T09:22:59.894Z,89.09
2019-05-22T09:25:11.866Z,90.33
2019-05-22T09:27:21.236Z,90.39
2019-05-22T09:29:29.186Z,89.85
2019-05-22T09:31:37.422Z,89.69
2019-05-22T09:33:45.471Z,89.05
2019-05-22T09:35:53.558Z,89.07
2019-05-22T09:38:01.606Z,89.21
2019-05-22T09:40:10.043Z,88.82
2019-05-22T09:42:19.836Z,89.19
2019-05-22T09:44:29.031Z,89.34
2019-05-22T09:46:37.251Z,89.40
2019-05-22T09:48:45.340Z,89.56
2019-05-22T09:50:53.603Z,89.22
2019-05-22T09:53:01.494Z,89.67
2019-05-22T09:55:11.221Z,89.64
2019-05-22T09:57:19.756Z,88.79
2019-05-22T09:59:28.929Z,89.63
2019-05-22T10:01:37.303Z,89.57
2019-05-22T10:03:46.360Z,89.60
2019-05-22T10:05:54.440Z,89.09
2019-05-22T10:08:03.971Z,89.64
2019-05-22T10:10:13.160Z,89.70
2019-05-22T10:12:21.414Z,89.12
2019-05-22T10:14:29.736Z,89.69
2019-05-22T10:16:38.837Z,89.29
2019-05-22T10:18:47.381Z,89.49
2019-05-22T10:20:56.086Z,89.25
2019-05-22T10:23:15.566Z,89.42
2019-05-22T10:25:21.164Z,89.23
2019-05-22T10:27:29.528Z,89.01
2019-05-22T10:29:37.845Z,89.10
2019-05-22T10:31:48.482Z,89.44
2019-05-22T10:33:56.465Z,89.70
2019-05-22T10:36:05.149Z,89.42
2019-05-22T10:38:14.082Z,89.87
2019-05-22T10:40:22.985Z,89.97
2019-05-22T10:42:31.545Z,89.61
2019-05-22T10:44:39.586Z,89.81
2019-05-22T10:46:48.027Z,88.96
2019-05-22T10:48:56.345Z,87.83
2019-05-22T10:51:04.861Z,88.50
2019-05-22T10:53:13.401Z,88.90
2019-05-22T10:55:22.785Z,88.99
2019-05-22T10:57:31.885Z,89.09
2019-05-22T10:59:40.854Z,88.55
2019-05-22T11:01:48.999Z,89.15
2019-05-22T11:03:57.955Z,88.85
2019-05-22T11:06:07.898Z,88.70
2019-05-22T11:08:16.671Z,88.11
2019-05-22T11:10:26.465Z,88.24
2019-05-22T11:12:35.195Z,88.44
2019-05-22T11:14:43.981Z,88.33
2019-05-22T11:16:52.460Z,88.24
2019-05-22T11:19:00.773Z,88.58
2019-05-22T11:21:08.731Z,88.66
2019-05-22T11:23:16.905Z,88.64
2019-05-22T11:25:25.458Z,88.91
2019-05-22T11:27:33.695Z,89.28
2019-05-22T11:29:42.844Z,89.46
2019-05-22T11:31:51.722Z,89.59
2019-05-22T11:34:00.358Z,89.36
2019-05-22T11:36:09.766Z,89.45
2019-05-22T11:38:18.417Z,89.27
2019-05-22T11:40:27.106Z,88.80
2019-05-22T11:42:36.278Z,89.18
2019-05-22T11:44:45.321Z,87.93
2019-05-22T11:46:53.447Z,87.82
2019-05-22T11:49:03.664Z,87.90
2019-05-22T11:51:12.259Z,87.33
2019-05-22T11:53:20.414Z,87.77
2019-05-22T11:55:43.919Z,87.37
2019-05-22T11:57:40.410Z,88.20
2019-05-22T11:59:49.387Z,88.81
2019-05-22T12:01:57.971Z,88.65
2019-05-22T12:04:09.253Z,88.18
2019-05-22T12:06:17.395Z,88.02
2019-05-22T12:08:26.912Z,87.88
2019-05-22T12:10:35.063Z,86.62
2019-05-22T12:12:44.673Z,85.80
2019-05-22T12:14:52.609Z,86.13
2019-05-22T12:17:01.259Z,85.98
2019-05-22T12:19:10.514Z,86.69
2019-05-22T12:21:18.727Z,86.81
2019-05-22T12:23:27.292Z,86.93
2019-05-22T12:25:35.703Z,85.77
2019-05-22T12:27:43.998Z,86.56
2019-05-22T12:29:52.540Z,86.63
2019-05-22T12:32:01.497Z,86.47
2019-05-22T12:34:09.688Z,86.49
2019-05-22T12:36:18.267Z,85.54
2019-05-22T12:38:27.288Z,85.67
2019-05-22T12:40:36.491Z,86.27
2019-05-22T12:42:45.726Z,86.01
2019-05-22T12:44:54.206Z,85.85
2019-05-22T12:47:03.717Z,86.26
2019-05-22T12:49:12.336Z,86.28
2019-05-22T12:51:21.666Z,86.51
2019-05-22T12:53:31.337Z,86.12
2019-05-22T12:55:41.748Z,86.35
2019-05-22T12:57:50.883Z,86.60
2019-05-22T13:00:02.572Z,86.04
2019-05-22T13:02:10.984Z,86.68
2019-05-22T13:04:21.525Z,86.29
2019-05-22T13:06:30.007Z,86.50
2019-05-22T13:08:39.153Z,86.96
2019-05-22T13:10:47.698Z,86.93
2019-05-22T13:12:56.984Z,87.09
2019-05-22T13:15:10.412Z,87.13
2019-05-22T13:17:19.701Z,87.38
2019-05-22T13:19:28.710Z,87.01
2019-05-22T13:21:39.595Z,87.59
2019-05-22T13:23:49.683Z,87.36
2019-05-22T13:25:58.380Z,87.36
2019-05-22T13:28:07.796Z,87.26
2019-05-22T13:30:18.369Z,87.18
2019-05-22T13:32:27.765Z,87.22
2019-05-22T13:34:35.768Z,87.00
2019-05-22T13:36:44.085Z,86.86
2019-05-22T13:38:53.042Z,87.46
2019-05-22T13:41:01.270Z,87.40
2019-05-22T13:43:09.421Z,86.77
2019-05-22T13:45:28.717Z,86.86
2019-05-22T13:47:28.416Z,87.46
2019-05-22T13:49:38.892Z,87.83
2019-05-22T13:51:47.257Z,88.86
2019-05-22T13:53:55.595Z,88.70
2019-05-22T13:56:04.660Z,88.82
2019-05-22T13:58:13.347Z,88.68
2019-05-22T14:00:23.485Z,89.00
2019-05-22T14:02:31.983Z,88.80
2019-05-22T14:04:40.755Z,89.07
2019-05-22T14:06:49.507Z,89.26
2019-05-22T14:08:57.934Z,89.46
2019-05-22T14:11:09.006Z,89.08
2019-05-22T14:13:17.789Z,89.24
2019-05-22T14:15:26.919Z,89.21
2019-05-22T14:17:35.146Z,89.43
2019-05-22T14:19:43.303Z,89.54
2019-05-22T14:21:52.213Z,89.51
2019-05-22T14:24:00.846Z,89.02
2019-05-22T14:26:09.770Z,89.25
2019-05-22T14:28:19.380Z,89.24
2019-05-22T14:30:28.103Z,88.87
2019-05-22T14:32:36.960Z,88.06
2019-05-22T14:34:46.001Z,88.66
2019-05-22T14:36:54.529Z,88.84
2019-05-22T14:39:05.018Z,88.33
2019-05-22T14:41:13.971Z,88.48
2019-05-22T14:43:22.197Z,88.92
2019-05-22T14:45:30.630Z,89.04
2019-05-22T14:47:39.122Z,89.15
2019-05-22T14:49:47.170Z,88.98
2019-05-22T14:51:56.206Z,88.64
2019-05-22T14:54:08.177Z,88.90
2019-05-22T14:56:17.778Z,89.00
2019-05-22T14:58:26.571Z,89.42
2019-05-22T15:00:36.533Z,89.37
2019-05-22T15:02:44.641Z,89.55
2019-05-22T15:05:00.825Z,89.57
2019-05-22T15:07:04.347Z,89.48
2019-05-22T15:09:12.891Z,89.34
2019-05-22T15:11:21.531Z,88.70
2019-05-22T15:13:29.690Z,88.40
2019-05-22T15:15:40.403Z,88.23
2019-05-22T15:17:47.689Z,88.73
2019-05-22T15:19:55.747Z,88.94
2019-05-22T15:22:05.461Z,89.17
2019-05-22T15:24:15.880Z,89.17
2019-05-22T15:26:23.980Z,88.91
2019-05-22T15:28:32.210Z,88.40
2019-05-22T15:30:40.877Z,88.12
2019-05-22T15:32:49.136Z,88.09
2019-05-22T15:34:58.211Z,88.11
2019-05-22T15:37:07.566Z,87.56
2019-05-22T15:39:20.206Z,87.72
2019-05-22T15:41:28.924Z,87.89
2019-05-22T15:43:38.072Z,88.28
2019-05-22T15:45:46.230Z,88.51
2019-05-22T15:47:57.996Z,88.68
2019-05-22T15:50:09.631Z,88.59
2019-05-22T15:52:18.907Z,88.16
2019-05-22T15:54:29.541Z,88.40
2019-05-22T15:56:39.280Z,88.32
2019-05-22T15:58:52.373Z,88.52
2019-05-22T16:01:02.230Z,88.78
2019-05-22T16:03:15.210Z,88.26
2019-05-22T16:05:24.939Z,88.19
2019-05-22T16:07:34.018Z,88.37
2019-05-22T16:09:47.646Z,88.46
2019-05-22T16:11:56.549Z,88.11
2019-05-22T16:14:05.291Z,88.69
2019-05-22T16:16:16.773Z,88.75
2019-05-22T16:18:31.359Z,88.82
2019-05-22T16:20:40.233Z,88.19
2019-05-22T16:22:48.635Z,88.90
2019-05-22T16:24:56.816Z,87.84
2019-05-22T16:27:06.771Z,87.80
2019-05-22T16:29:15.681Z,88.10
2019-05-22T16:31:24.388Z,87.95
2019-05-22T16:33:32.939Z,87.58
2019-05-22T16:35:41.834Z,87.92
2019-05-22T16:37:50.026Z,87.46
2019-05-22T16:39:58.581Z,87.32
2019-05-22T16:42:08.177Z,87.45
2019-05-22T16:44:16.817Z,87.78
2019-05-22T16:46:26.303Z,87.73
2019-05-22T16:48:34.817Z,87.68
2019-05-22T16:50:43.350Z,87.62
2019-05-22T16:52:52.847Z,87.81
2019-05-22T16:55:01.930Z,86.92
2019-05-22T16:57:12.044Z,87.00
2019-05-22T16:59:21.326Z,87.08
2019-05-22T17:01:30.951Z,87.10
2019-05-22T17:03:40.179Z,86.49
2019-05-22T17:05:48.491Z,86.38
2019-05-22T17:07:57.737Z,85.92
2019-05-22T17:10:10.128Z,86.27
2019-05-22T17:12:19.516Z,85.67
2019-05-22T17:14:29.037Z,85.50
2019-05-22T17:16:39.745Z,85.90
2019-05-22T17:18:48.923Z,86.05
2019-05-22T17:20:59.160Z,85.73
2019-05-22T17:23:07.182Z,85.76
2019-05-22T17:25:18.679Z,85.62
2019-05-22T17:27:27.001Z,85.50
2019-05-22T17:29:36.500Z,85.69
2019-05-22T17:31:45.363Z,85.57
2019-05-22T17:33:54.462Z,85.72
2019-05-22T17:36:05.550Z,85.24
2019-05-22T17:38:12.591Z,85.15
2019-05-22T17:40:22.290Z,85.20
2019-05-22T17:42:31.579Z,85.21
2019-05-22T17:44:43.275Z,84.55
2019-05-22T17:46:51.232Z,85.46
2019-05-22T17:49:00.664Z,85.83
2019-05-22T17:51:09.201Z,85.69
2019-05-22T17:53:18.863Z,84.98
2019-05-22T17:55:28.873Z,85.32
2019-05-22T17:57:39.146Z,85.87
2019-05-22T17:59:47.423Z,85.90
2019-05-22T18:01:55.871Z,85.55
2019-05-22T18:04:04.899Z,85.59
2019-05-22T18:06:13.995Z,85.49
2019-05-22T18:08:23.426Z,85.30
2019-05-22T18:10:40.483Z,85.30
2019-05-22T18:12:49.322Z,85.38
2019-05-22T18:14:57.556Z,85.19
2019-05-22T18:17:06.783Z,85.36
2019-05-22T18:19:15.122Z,85.49
2019-05-22T18:21:23.018Z,85.69
2019-05-22T18:23:31.366Z,85.52
2019-05-22T18:25:39.629Z,85.86
2019-05-22T18:27:48.941Z,85.69
2019-05-22T18:29:57.064Z,85.51
2019-05-22T18:32:06.800Z,85.24
2019-05-22T18:34:15.393Z,85.27
2019-05-22T18:36:23.706Z,85.34
2019-05-22T18:38:32.132Z,85.27
2019-05-22T18:40:41.074Z,85.48
2019-05-22T18:42:49.617Z,85.46
2019-05-22T18:44:57.818Z,85.48
2019-05-22T18:47:06.032Z,85.91
2019-05-22T18:49:14.783Z,85.82
2019-05-22T18:51:23.760Z,85.86
2019-05-22T18:53:32.184Z,85.95
2019-05-22T18:55:40.271Z,85.95
2019-05-22T18:57:48.912Z,85.90
2019-05-22T19:00:02.823Z,86.06
2019-05-22T19:02:09.442Z,86.12
2019-05-22T19:04:17.728Z,86.27
2019-05-22T19:06:30.539Z,86.46
2019-05-22T19:08:35.867Z,86.55
2019-05-22T19:10:44.279Z,86.60
2019-05-22T19:12:53.263Z,86.59
2019-05-22T19:15:01.938Z,86.56
2019-05-22T19:17:10.762Z,86.54
2019-05-22T19:19:18.872Z,86.52
2019-05-22T19:21:27.033Z,86.40
2019-05-22T19:23:35.259Z,85.97
2019-05-22T19:25:43.333Z,85.48
2019-05-22T19:27:51.465Z,86.11
2019-05-22T19:29:59.987Z,85.94
2019-05-22T19:32:08.127Z,86.11
2019-05-22T19:34:16.187Z,85.96
2019-05-22T19:36:24.141Z,85.75
2019-05-22T19:38:32.377Z,85.78
2019-05-22T19:40:40.511Z,86.02
2019-05-22T19:42:48.870Z,85.94
2019-05-22T19:44:57.180Z,85.73
2019-05-22T19:47:07.091Z,85.83
2019-05-22T19:49:16.417Z,85.96
2019-05-22T19:51:27.529Z,85.80
2019-05-22T19:53:36.741Z,85.79
2019-05-22T19:55:45.678Z,85.76
2019-05-22T19:57:56.270Z,85.38
2019-05-22T20:00:05.071Z,84.80
2019-05-22T20:02:15.138Z,84.74
2019-05-22T20:04:23.670Z,85.29
2019-05-22T20:06:32.505Z,85.32
2019-05-22T20:08:40.678Z,85.58
2019-05-22T20:10:48.896Z,85.70
2019-05-22T20:12:57.826Z,85.72
2019-05-22T20:15:09.900Z,85.59
2019-05-22T20:17:18.342Z,85.39
2019-05-22T20:19:27.127Z,85.37
2019-05-22T20:21:35.598Z,85.28
2019-05-22T20:23:44.500Z,85.69
2019-05-22T20:25:52.597Z,85.69
2019-05-22T20:28:03.735Z,86.31
2019-05-22T20:30:14.485Z,85.93
2019-05-22T20:32:23.020Z,86.50
2019-05-22T20:34:31.105Z,86.98
2019-05-22T20:36:40.760Z,86.74
2019-05-22T20:38:50.050Z,87.26
2019-05-22T20:40:59.158Z,87.28
2019-05-22T20:43:08.953Z,87.36
2019-05-22T20:45:19.275Z,86.78
2019-05-22T20:47:28.353Z,87.66
2019-05-22T20:49:36.422Z,86.92
2019-05-22T20:51:44.468Z,87.28
2019-05-22T20:53:54.838Z,87.15
2019-05-22T20:56:04.471Z,87.11
2019-05-22T20:58:14.384Z,87.05
2019-05-22T21:00:23.525Z,87.23
2019-05-22T21:02:34.046Z,87.20
2019-05-22T21:04:43.949Z,87.52
2019-05-22T21:07:00.286Z,87.90
2019-05-22T21:09:09.186Z,88.37
2019-05-22T21:11:21.435Z,88.19
2019-05-22T21:13:31.407Z,88.18
2019-05-22T21:15:39.840Z,87.89
2019-05-22T21:17:49.147Z,88.53
2019-05-22T21:19:58.489Z,88.28
2019-05-22T21:22:08.354Z,88.87
2019-05-22T21:24:17.836Z,88.34
2019-05-22T21:26:26.741Z,87.86
2019-05-22T21:28:34.777Z,87.75
2019-05-22T21:30:44.413Z,87.43
2019-05-22T21:32:52.565Z,87.47
2019-05-22T21:35:00.832Z,87.34
2019-05-22T21:37:10.062Z,87.16
2019-05-22T21:39:19.282Z,87.43
2019-05-22T21:41:28.131Z,87.71
2019-05-22T21:43:36.273Z,87.62
2019-05-22T21:45:45.208Z,88.33
2019-05-22T21:47:53.428Z,88.88
2019-05-22T21:50:02.249Z,88.98
2019-05-22T21:52:11.683Z,89.57
2019-05-22T21:54:19.709Z,89.37
2019-05-22T21:56:27.876Z,89.14
2019-05-22T21:58:36.358Z,88.85
2019-05-22T22:00:50.689Z,88.79
2019-05-22T22:03:00.195Z,88.38
2019-05-22T22:05:08.930Z,88.29
2019-05-22T22:07:18.229Z,88.16
2019-05-22T22:09:27.741Z,88.11
2019-05-22T22:11:36.584Z,87.89
2019-05-22T22:13:45.451Z,87.66
2019-05-22T22:15:53.889Z,87.50
2019-05-22T22:18:02.306Z,87.40
2019-05-22T22:20:12.105Z,87.24
2019-05-22T22:22:24.691Z,87.04
2019-05-22T22:24:33.548Z,86.84
2019-05-22T22:26:41.927Z,86.72
2019-05-22T22:28:51.002Z,86.40
2019-05-22T22:31:04.482Z,85.82
2019-05-22T22:33:14.775Z,85.99
2019-05-22T22:35:23.569Z,86.10
2019-05-22T22:37:32.303Z,86.34
2019-05-22T22:39:43.968Z,86.47
2019-05-22T22:41:53.412Z,86.50
2019-05-22T22:44:03.583Z,85.83
2019-05-22T22:46:40.962Z,86.31
2019-05-22T22:48:51.836Z,86.54
2019-05-22T22:51:01.346Z,86.77
2019-05-22T22:53:10.527Z,86.90
2019-05-22T22:55:20.229Z,86.97
2019-05-22T22:57:28.415Z,87.02
2019-05-22T22:59:36.873Z,87.01
2019-05-22T23:01:50.005Z,87.00
2019-05-22T23:04:01.143Z,86.98
2019-05-22T23:06:11.944Z,86.18
2019-05-22T23:08:27.694Z,86.23
2019-05-22T23:10:36.711Z,86.69
2019-05-22T23:12:44.723Z,86.78
2019-05-22T23:14:57.397Z,87.03
2019-05-22T23:17:06.048Z,86.94
2019-05-22T23:19:18.830Z,86.88
2019-05-22T23:21:26.931Z,86.98
2019-05-22T23:23:33.273Z,86.99
2019-05-22T23:25:43.305Z,87.05
2019-05-22T23:27:51.267Z,87.06
2019-05-22T23:29:59.920Z,87.14
2019-05-22T23:32:10.298Z,87.04
2019-05-22T23:34:18.692Z,86.88
2019-05-22T23:36:27.414Z,86.57
2019-05-22T23:38:35.307Z,86.43
2019-05-22T23:40:45.581Z,86.31
2019-05-22T23:42:58.165Z,85.94
2019-05-22T23:45:13.914Z,85.95
2019-05-22T23:47:24.912Z,86.20
2019-05-22T23:49:35.007Z,87.29
2019-05-22T23:51:43.643Z,87.75
2019-05-22T23:53:54.040Z,88.82
2019-05-22T23:56:04.066Z,89.85
2019-05-22T23:58:14.273Z,89.47
